Time;durP1;ratioP1;P1;durP2;ratioP2;P2;SDS_P1;SDS_P2;PMS_P1;PMS_P2;Temp;Humidity;BMP_temperature;BMP_pressure;BME280_temperature;BME280_humidity;BME280_pressure;Samples;Min_cycle;Max_cycle;Signal;HPM_P1;HPM_P2
2022/08/22 00:01:41;;;;;;;1.67;0.60;;;26.10;68.60;;;;;;5032549;28;20021;-79
2022/08/22 00:04:18;;;;;;;2.10;0.70;;;25.90;68.90;;;;;;5039724;28;20035;-79
2022/08/22 00:06:56;;;;;;;1.05;0.70;;;25.90;69.00;;;;;;5052185;28;20024;-79
2022/08/22 00:09:28;;;;;;;0.63;0.52;;;25.90;69.50;;;;;;5052135;28;20021;-79
2022/08/22 00:12:08;;;;;;;0.80;0.40;;;25.90;68.90;;;;;;5036661;28;20021;-79
2022/08/22 00:14:44;;;;;;;1.40;1.00;;;25.90;68.80;;;;;;5032618;28;20083;-79
2022/08/22 00:17:28;;;;;;;3.20;0.93;;;25.90;69.00;;;;;;5033492;28;20025;-79
2022/08/22 00:20:12;;;;;;;1.40;0.80;;;25.90;68.90;;;;;;5042588;28;20029;-79
2022/08/22 00:22:52;;;;;;;1.40;0.60;;;26.00;69.30;;;;;;5052144;28;20108;-79
2022/08/22 00:25:36;;;;;;;1.10;0.68;;;26.00;69.60;;;;;;5053131;28;20039;-79
2022/08/22 00:28:12;;;;;;;0.85;0.50;;;26.10;69.50;;;;;;5035592;28;20116;-79
2022/08/22 00:31:04;;;;;;;1.45;0.70;;;26.10;68.60;;;;;;5035811;28;20397;-79
2022/08/22 00:33:39;;;;;;;2.08;0.77;;;26.10;68.40;;;;;;5027106;28;20049;-79
2022/08/22 00:36:23;;;;;;;1.52;0.73;;;26.10;68.60;;;;;;5038484;28;20043;-79
2022/08/22 00:39:12;;;;;;;1.77;0.95;;;26.00;68.10;;;;;;5055528;28;20029;-79
2022/08/22 00:41:59;;;;;;;3.13;0.77;;;25.90;67.90;;;;;;5052347;28;20036;-78
2022/08/22 00:44:55;;;;;;;1.40;0.82;;;25.90;68.50;;;;;;5055006;28;20028;-77
2022/08/22 00:48:09;;;;;;;1.25;0.60;;;25.90;68.90;;;;;;5055123;28;20041;-80
2022/08/22 00:50:43;;;;;;;2.17;0.90;;;25.90;68.90;;;;;;5022553;28;20051;-79
2022/08/22 00:53:11;;;;;;;3.05;0.88;;;25.90;69.20;;;;;;5051842;28;20025;-78
2022/08/22 00:55:57;;;;;;;1.27;0.63;;;25.90;69.20;;;;;;5035254;28;20031;-79
2022/08/22 00:58:53;;;;;;;1.27;0.50;;;25.90;69.50;;;;;;5035015;28;20037;-79
2022/08/22 01:01:28;;;;;;;2.13;0.90;;;25.90;69.50;;;;;;5035328;28;20063;-79
2022/08/22 01:04:06;;;;;;;0.75;0.50;;;25.90;69.70;;;;;;5034876;28;20466;-79
2022/08/22 01:06:47;;;;;;;2.72;0.50;;;25.80;69.60;;;;;;5042210;28;20021;-78
2022/08/22 01:09:25;;;;;;;0.90;0.70;;;25.90;69.80;;;;;;5040741;28;20064;-78
2022/08/22 01:12:15;;;;;;;0.95;0.50;;;25.90;69.70;;;;;;5034972;28;20136;-77
2022/08/22 01:14:47;;;;;;;0.95;0.40;;;25.90;69.30;;;;;;5033911;28;20358;-80
2022/08/22 01:17:16;;;;;;;0.93;0.60;;;25.80;69.20;;;;;;5034867;28;20029;-79
2022/08/22 01:20:00;;;;;;;2.75;0.50;;;25.70;69.40;;;;;;5035238;28;20049;-78
2022/08/22 01:22:31;;;;;;;2.88;0.68;;;25.70;69.50;;;;;;5035020;28;20433;-78
2022/08/22 01:25:29;;;;;;;0.63;0.52;;;25.70;69.70;;;;;;5034719;28;20108;-78
2022/08/22 01:28:16;;;;;;;2.20;0.60;;;25.70;69.70;;;;;;5034867;28;20126;-78
2022/08/22 01:31:03;;;;;;;3.10;0.73;;;25.50;69.80;;;;;;5034836;28;20037;-77
2022/08/22 01:33:57;;;;;;;0.98;0.50;;;25.50;70.00;;;;;;5035032;28;20029;-77
2022/08/22 01:36:55;;;;;;;2.47;0.70;;;25.40;70.40;;;;;;5038779;28;20131;-77
2022/08/22 01:39:43;;;;;;;0.98;0.52;;;25.40;70.40;;;;;;5054572;28;20044;-77
2022/08/22 01:42:24;;;;;;;0.80;0.77;;;25.50;70.40;;;;;;5048730;28;20053;-77
2022/08/22 01:45:13;;;;;;;0.57;0.40;;;25.50;70.50;;;;;;5034717;28;20065;-77
2022/08/22 01:47:49;;;;;;;1.05;0.47;;;25.60;70.70;;;;;;5034540;28;20366;-77
2022/08/22 01:50:29;;;;;;;1.10;0.77;;;25.70;70.30;;;;;;5034086;28;20124;-77
2022/08/22 01:53:38;;;;;;;1.05;0.70;;;25.70;70.20;;;;;;5034565;28;20052;-77
2022/08/22 01:56:17;;;;;;;1.42;0.70;;;25.70;69.80;;;;;;5033058;28;20398;-77
2022/08/22 01:58:58;;;;;;;0.77;0.50;;;25.80;69.70;;;;;;5037483;28;20021;-77
2022/08/22 02:01:44;;;;;;;1.48;0.70;;;25.70;69.30;;;;;;5054411;28;20043;-77
2022/08/22 02:04:47;;;;;;;1.75;0.70;;;25.70;69.30;;;;;;5054420;28;20036;-77
2022/08/22 02:07:18;;;;;;;0.70;0.60;;;25.80;69.40;;;;;;5053248;28;20386;-77
2022/08/22 02:10:14;;;;;;;0.60;0.60;;;25.80;69.30;;;;;;5037584;28;20034;-77
2022/08/22 02:12:42;;;;;;;2.85;0.70;;;25.80;69.40;;;;;;5034392;28;20056;-77
2022/08/22 02:15:20;;;;;;;1.70;0.70;;;25.90;69.10;;;;;;5033854;28;20029;-76
2022/08/22 02:18:11;;;;;;;3.53;0.80;;;25.80;68.90;;;;;;5033959;28;20060;-78
2022/08/22 02:21:01;;;;;;;1.35;0.80;;;25.90;68.90;;;;;;5032582;28;20036;-78
2022/08/22 02:23:42;;;;;;;1.42;0.63;;;25.90;68.90;;;;;;5048838;28;20367;-77
2022/08/22 02:26:15;;;;;;;2.22;0.80;;;25.90;68.80;;;;;;5053731;28;20021;-78
2022/08/22 02:28:59;;;;;;;0.88;0.70;;;25.90;69.00;;;;;;5048863;28;20025;-76
2022/08/22 02:31:59;;;;;;;1.23;0.70;;;25.80;69.00;;;;;;5044294;28;20029;-77
2022/08/22 02:34:52;;;;;;;1.05;0.70;;;25.90;68.90;;;;;;5034165;28;20057;-75
2022/08/22 02:37:38;;;;;;;2.10;0.77;;;25.80;68.40;;;;;;5033408;28;20109;-77
2022/08/22 02:40:18;;;;;;;0.80;0.70;;;25.80;68.60;;;;;;5033435;28;20033;-76
2022/08/22 02:42:58;;;;;;;2.45;0.77;;;25.80;68.60;;;;;;5032044;28;20030;-78
2022/08/22 02:45:53;;;;;;;0.95;0.70;;;25.80;68.60;;;;;;5033175;28;20068;-79
2022/08/22 02:48:37;;;;;;;1.17;0.73;;;25.80;68.50;;;;;;5033049;28;20026;-78
2022/08/22 02:51:30;;;;;;;1.88;0.70;;;25.80;68.50;;;;;;5032761;28;20498;-77
2022/08/22 02:54:20;;;;;;;2.70;0.85;;;25.70;68.70;;;;;;5031435;28;20037;-77
2022/08/22 02:56:55;;;;;;;;;;;25.70;69.10;;;;;;5032879;28;20034;-78
2022/08/22 02:59:57;;;;;;;2.45;1.65;;;25.70;69.10;;;;;;5031861;28;19955;-77
2022/08/22 03:02:32;;;;;;;2.10;1.50;;;25.70;69.80;;;;;;5034747;28;20055;-77
2022/08/22 03:05:22;;;;;;;2.00;1.20;;;25.60;69.10;;;;;;5051070;28;20029;-77
2022/08/22 03:08:00;;;;;;;1.73;1.20;;;25.70;69.20;;;;;;5017082;28;20505;-77
2022/08/22 03:10:35;;;;;;;4.45;1.25;;;25.60;69.40;;;;;;5012357;28;20034;-77
2022/08/22 03:13:16;;;;;;;1.25;1.15;;;25.60;69.40;;;;;;5024782;28;20029;-77
2022/08/22 03:15:59;;;;;;;1.90;1.00;;;25.60;69.70;;;;;;5032183;28;20057;-77
2022/08/22 03:18:40;;;;;;;1.52;1.00;;;25.60;69.90;;;;;;5032288;28;20028;-77
2022/08/22 03:21:36;;;;;;;1.75;1.10;;;25.60;69.80;;;;;;5031052;28;20025;-79
2022/08/22 03:24:10;;;;;;;1.67;0.80;;;25.60;70.60;;;;;;5012457;28;20079;-78
2022/08/22 03:27:01;;;;;;;3.67;1.00;;;25.60;70.10;;;;;;5012566;28;20033;-78
2022/08/22 03:29:38;;;;;;;1.90;0.60;;;25.60;70.20;;;;;;5021899;28;20045;-78
2022/08/22 03:32:18;;;;;;;0.93;0.70;;;25.60;69.80;;;;;;5032315;28;20382;-80
2022/08/22 03:35:07;;;;;;;1.55;0.80;;;25.50;69.90;;;;;;5032301;28;20028;-78
2022/08/22 03:37:41;;;;;;;1.80;0.68;;;25.60;70.10;;;;;;5030969;28;20072;-77
2022/08/22 03:40:44;;;;;;;3.83;0.85;;;25.50;70.10;;;;;;5031887;28;20021;-78
2022/08/22 03:43:13;;;;;;;1.10;1.00;;;25.50;70.20;;;;;;5032060;28;20104;-78
2022/08/22 03:46:03;;;;;;;2.47;0.63;;;25.50;70.20;;;;;;5032679;28;20430;-78
2022/08/22 03:48:55;;;;;;;1.70;1.03;;;25.50;70.10;;;;;;4992228;28;1137142;-78
2022/08/22 03:51:46;;;;;;;1.90;0.85;;;25.50;69.80;;;;;;5032825;28;20026;-76
2022/08/22 03:54:12;;;;;;;0.98;0.60;;;25.50;69.40;;;;;;5032887;28;20029;-76
2022/08/22 03:57:05;;;;;;;1.70;1.00;;;25.50;69.00;;;;;;5032879;28;20117;-77
2022/08/22 03:59:49;;;;;;;1.20;1.10;;;25.50;68.70;;;;;;5043390;28;20115;-77
2022/08/22 04:02:42;;;;;;;1.05;0.85;;;25.50;69.00;;;;;;5055057;28;20128;-77
2022/08/22 04:05:46;;;;;;;1.42;0.70;;;25.50;69.00;;;;;;5056586;28;20033;-78
2022/08/22 04:08:30;;;;;;;1.15;0.70;;;25.50;69.10;;;;;;5051303;28;20025;-78
2022/08/22 04:11:33;;;;;;;1.13;0.77;;;25.50;69.00;;;;;;5055914;28;20029;-76
2022/08/22 04:14:23;;;;;;;1.40;0.80;;;25.60;68.80;;;;;;5056191;28;20079;-77
2022/08/22 04:16:48;;;;;;;0.57;0.57;;;25.50;68.60;;;;;;5056062;28;20017;-78
2022/08/22 04:19:17;;;;;;;1.40;0.77;;;25.50;68.70;;;;;;5045499;28;20029;-79
2022/08/22 04:21:51;;;;;;;2.85;0.85;;;25.50;69.10;;;;;;5051609;28;20028;-78
2022/08/22 04:24:32;;;;;;;1.20;0.70;;;25.50;69.10;;;;;;5044818;28;20025;-78
2022/08/22 04:27:09;;;;;;;1.42;0.88;;;25.50;69.20;;;;;;5034720;28;20445;-78
2022/08/22 04:29:48;;;;;;;1.23;0.98;;;25.40;69.00;;;;;;5046775;28;20025;-78
2022/08/22 04:32:24;;;;;;;1.73;0.90;;;25.50;69.10;;;;;;5018863;28;20120;-77
2022/08/22 04:34:57;;;;;;;1.83;0.80;;;25.40;69.10;;;;;;5036008;28;20032;-78
2022/08/22 04:37:30;;;;;;;0.85;0.60;;;25.40;69.20;;;;;;5034514;28;20359;-77
2022/08/22 04:40:04;;;;;;;1.00;0.90;;;25.40;69.30;;;;;;5034364;28;20470;-77
2022/08/22 04:42:48;;;;;;;0.98;0.80;;;25.40;69.30;;;;;;5035454;28;20030;-77
2022/08/22 04:45:23;;;;;;;1.20;0.90;;;25.30;69.60;;;;;;5034486;28;20381;-77
2022/08/22 04:48:03;;;;;;;1.10;0.95;;;25.30;69.80;;;;;;5039844;28;20041;-78
2022/08/22 04:50:38;;;;;;;;;;;25.30;70.30;;;;;;5053766;28;20056;-79
2022/08/22 04:53:11;;;;;;;1.05;0.90;;;25.30;70.70;;;;;;5035462;28;19915;-76
2022/08/22 04:55:45;;;;;;;1.58;0.80;;;25.30;70.90;;;;;;5035073;28;20025;-76
2022/08/22 04:58:20;;;;;;;2.75;0.93;;;25.30;71.00;;;;;;5035933;28;20055;-76
2022/08/22 05:01:03;;;;;;;3.47;0.80;;;25.30;71.10;;;;;;5033389;28;20036;-77
2022/08/22 05:03:30;;;;;;;1.27;0.68;;;25.20;71.30;;;;;;5024756;28;20040;-77
2022/08/22 05:05:59;;;;;;;1.00;0.90;;;25.20;71.50;;;;;;5034511;28;20031;-77
2022/08/22 05:08:31;;;;;;;1.37;0.87;;;25.20;71.90;;;;;;5031826;28;20030;-77
2022/08/22 05:10:59;;;;;;;1.23;0.75;;;25.20;71.90;;;;;;5026636;28;20469;-77
2022/08/22 05:13:55;;;;;;;2.35;0.70;;;25.20;71.80;;;;;;5037926;28;20355;-77
2022/08/22 05:16:27;;;;;;;1.25;0.80;;;25.20;71.90;;;;;;5024570;28;20045;-77
2022/08/22 05:19:01;;;;;;;1.42;1.05;;;25.20;71.80;;;;;;5045318;28;20025;-77
2022/08/22 05:21:32;;;;;;;1.67;0.90;;;25.30;71.80;;;;;;5034529;28;20105;-78
2022/08/22 05:24:01;;;;;;;1.55;1.00;;;25.30;71.90;;;;;;5030147;28;20022;-78
2022/08/22 05:26:28;;;;;;;3.42;1.13;;;25.30;71.90;;;;;;5034293;28;20029;-77
2022/08/22 05:29:01;;;;;;;2.05;0.88;;;25.40;71.90;;;;;;5031897;28;20048;-78
2022/08/22 05:31:35;;;;;;;2.38;1.15;;;25.40;71.60;;;;;;5028342;28;20731;-79
2022/08/22 05:34:05;;;;;;;1.92;1.08;;;25.40;71.50;;;;;;5031910;28;20033;-78
2022/08/22 05:36:40;;;;;;;2.10;0.95;;;25.40;71.30;;;;;;5031188;28;20041;-80
2022/08/22 05:39:20;;;;;;;2.63;1.10;;;25.40;71.40;;;;;;5028121;28;20465;-81
2022/08/22 05:41:48;;;;;;;1.83;1.10;;;25.50;71.40;;;;;;5033276;28;20124;-81
2022/08/22 05:44:21;;;;;;;2.13;1.00;;;25.50;71.10;;;;;;5032825;28;20060;-81
2022/08/22 05:47:13;;;;;;;3.05;1.40;;;25.50;70.80;;;;;;5034530;28;20033;-81
2022/08/22 05:49:48;;;;;;;0.80;0.70;;;25.50;70.70;;;;;;5041651;28;20160;-81
2022/08/22 05:52:37;;;;;;;3.53;1.00;;;25.50;70.60;;;;;;5033785;28;20033;-81
2022/08/22 05:55:15;;;;;;;1.40;0.80;;;25.60;70.40;;;;;;5033763;28;20037;-81
2022/08/22 05:57:45;;;;;;;2.25;1.15;;;25.60;70.30;;;;;;5033886;28;20041;-82
2022/08/22 06:00:16;;;;;;;1.77;0.90;;;25.60;70.40;;;;;;5034107;28;20034;-82
2022/08/22 06:02:47;;;;;;;2.33;1.45;;;25.60;70.70;;;;;;5034239;28;20525;-82
2022/08/22 06:05:20;;;;;;;2.30;1.17;;;25.50;70.80;;;;;;5032545;28;20034;-83
2022/08/22 06:07:52;;;;;;;1.90;1.25;;;25.60;71.10;;;;;;5033200;28;20547;-82
2022/08/22 06:10:28;;;;;;;2.42;1.50;;;25.60;71.10;;;;;;5033935;28;20148;-82
2022/08/22 06:13:14;;;;;;;2.35;1.60;;;25.70;71.00;;;;;;5034927;28;20044;-82
2022/08/22 06:16:20;;;;;;;1.90;1.13;;;25.70;71.20;;;;;;5054067;28;20425;-82
2022/08/22 06:18:49;;;;;;;2.92;1.10;;;25.70;71.00;;;;;;5031476;28;20057;-82
2022/08/22 06:21:28;;;;;;;2.17;1.05;;;25.80;70.90;;;;;;5014768;28;20042;-82
2022/08/22 06:23:59;;;;;;;1.58;1.05;;;25.80;70.60;;;;;;5027439;28;20040;-82
2022/08/22 06:26:30;;;;;;;3.65;1.40;;;25.70;70.30;;;;;;5033061;28;20104;-82
2022/08/22 06:28:58;;;;;;;3.80;1.10;;;25.70;70.20;;;;;;5034881;28;20043;-83
2022/08/22 06:31:31;;;;;;;1.52;1.10;;;25.70;70.40;;;;;;5031293;28;20057;-82
2022/08/22 06:34:07;;;;;;;2.50;1.15;;;25.80;70.20;;;;;;5033853;28;20087;-82
2022/08/22 06:36:35;;;;;;;1.00;0.73;;;25.80;70.20;;;;;;5041414;28;20115;-82
2022/08/22 06:39:20;;;;;;;5.20;1.35;;;25.80;70.10;;;;;;5053745;28;20108;-82
2022/08/22 06:41:58;;;;;;;1.27;1.15;;;25.80;69.90;;;;;;5053715;28;20029;-82
2022/08/22 06:44:28;;;;;;;3.15;1.40;;;25.80;69.80;;;;;;5053494;28;20036;-82
2022/08/22 06:46:57;;;;;;;;;;;25.80;69.90;;;;;;5052642;28;20021;-82
2022/08/22 06:49:25;;;;;;;2.13;1.15;;;25.80;70.10;;;;;;5053202;28;20339;-82
2022/08/22 06:51:52;;;;;;;2.50;1.13;;;25.90;70.30;;;;;;5045491;28;20036;-82
2022/08/22 06:54:22;;;;;;;2.17;1.35;;;25.90;70.20;;;;;;5033363;28;20040;-82
2022/08/22 06:56:51;;;;;;;1.98;1.42;;;25.90;70.20;;;;;;5032188;28;20062;-82
2022/08/22 06:59:24;;;;;;;2.15;1.63;;;25.90;70.50;;;;;;5033283;28;20044;-82
2022/08/22 07:01:55;;;;;;;2.33;1.77;;;25.90;71.00;;;;;;5033433;28;20025;-82
2022/08/22 07:04:26;;;;;;;3.40;1.92;;;26.00;71.40;;;;;;5043451;28;20041;-82
2022/08/22 07:06:56;;;;;;;3.28;1.90;;;26.00;71.40;;;;;;5044501;28;20096;-82
2022/08/22 07:09:33;;;;;;;3.03;1.63;;;26.00;71.00;;;;;;5039446;28;20040;-83
2022/08/22 07:12:03;;;;;;;2.83;1.50;;;26.00;70.80;;;;;;5041602;28;20112;-83
2022/08/22 07:14:40;;;;;;;1.63;1.15;;;26.00;70.40;;;;;;5053292;28;20112;-82
2022/08/22 07:17:08;;;;;;;1.73;1.40;;;26.00;69.10;;;;;;5048202;28;20049;-83
2022/08/22 07:19:40;;;;;;;4.93;1.60;;;26.00;68.90;;;;;;5033327;28;20072;-82
2022/08/22 07:22:15;;;;;;;1.70;1.30;;;26.00;68.70;;;;;;5033356;28;20021;-82
2022/08/22 07:24:54;;;;;;;1.98;1.45;;;26.00;68.30;;;;;;5023136;28;20033;-81
2022/08/22 07:27:39;;;;;;;1.67;1.38;;;26.10;67.90;;;;;;5038893;28;20053;-82
2022/08/22 07:30:11;;;;;;;3.00;1.80;;;26.20;68.00;;;;;;5031871;28;20030;-82
2022/08/22 07:32:55;;;;;;;2.35;1.83;;;26.30;68.20;;;;;;5033049;28;20032;-81
2022/08/22 07:35:40;;;;;;;1.98;1.70;;;26.40;67.70;;;;;;5034382;28;20037;-81
2022/08/22 07:38:06;;;;;;;3.47;1.90;;;26.50;67.50;;;;;;5022894;28;20029;-82
2022/08/22 07:40:38;;;;;;;3.83;1.92;;;26.60;67.00;;;;;;5048495;28;20025;-82
2022/08/22 07:43:07;;;;;;;3.28;1.77;;;26.60;65.60;;;;;;5038966;28;20032;-82
2022/08/22 07:45:50;;;;;;;3.38;1.70;;;26.70;66.60;;;;;;5036352;28;20060;-82
2022/08/22 07:48:25;;;;;;;2.75;1.35;;;26.70;66.40;;;;;;5035976;28;20025;-82
2022/08/22 07:51:12;;;;;;;2.55;1.50;;;26.80;66.10;;;;;;5035324;28;20233;-82
2022/08/22 07:53:44;;;;;;;1.52;1.30;;;26.90;65.60;;;;;;5035678;28;20025;-82
2022/08/22 07:56:27;;;;;;;79.68;70.97;;;27.00;65.70;;;;;;5047042;28;20168;-81
2022/08/22 07:58:59;;;;;;;157.98;140.95;;;27.10;65.50;;;;;;5040621;28;20056;-82
2022/08/22 08:01:28;;;;;;;72.13;63.65;;;27.20;65.50;;;;;;5036203;28;20180;-82
2022/08/22 08:04:07;;;;;;;13.32;12.00;;;27.30;65.60;;;;;;5034650;28;20454;-83
2022/08/22 08:06:34;;;;;;;3.85;3.55;;;27.40;64.90;;;;;;5056412;28;20021;-82
2022/08/22 08:09:01;;;;;;;2.00;1.90;;;27.40;65.10;;;;;;5038792;28;20079;-75
2022/08/22 08:11:32;;;;;;;4.80;1.50;;;27.50;65.40;;;;;;5036555;28;20033;-74
2022/08/22 08:14:03;;;;;;;1.48;1.00;;;27.50;65.20;;;;;;5036465;28;20155;-74
2022/08/22 08:16:40;;;;;;;;;;;27.60;64.60;;;;;;5036817;28;20078;-74
2022/08/22 08:19:07;;;;;;;1.95;0.90;;;27.50;63.70;;;;;;5035293;28;19932;-75
2022/08/22 08:21:41;;;;;;;2.38;1.35;;;27.50;64.30;;;;;;5054519;28;20025;-74
2022/08/22 08:24:14;;;;;;;2.33;1.20;;;27.60;63.90;;;;;;5054812;28;20025;-74
2022/08/22 08:29:35;;;;;;;2.17;1.17;;;27.50;63.30;;;;;;5031904;28;20059;-75
2022/08/22 08:32:04;;;;;;;1.38;1.20;;;27.50;63.30;;;;;;5055962;28;20207;-75
2022/08/22 08:34:31;;;;;;;1.23;1.13;;;27.60;63.30;;;;;;5054933;28;20029;-75
2022/08/22 08:37:03;;;;;;;3.00;1.00;;;27.60;63.20;;;;;;5040380;28;20033;-75
2022/08/22 08:39:49;;;;;;;3.60;1.30;;;27.70;63.40;;;;;;5035803;28;20045;-75
2022/08/22 08:42:30;;;;;;;1.58;1.05;;;27.80;63.60;;;;;;5035641;28;20431;-75
2022/08/22 08:45:08;;;;;;;2.72;1.40;;;27.90;63.70;;;;;;5036042;28;20076;-74
2022/08/22 08:48:02;;;;;;;1.73;1.02;;;28.10;62.90;;;;;;5035545;28;20465;-74
2022/08/22 08:50:40;;;;;;;1.63;1.40;;;28.10;62.10;;;;;;5035330;28;20053;-74
2022/08/22 08:53:14;;;;;;;1.55;1.25;;;28.20;62.30;;;;;;5034607;28;20034;-75
2022/08/22 08:56:13;;;;;;;2.05;1.50;;;28.30;62.00;;;;;;5035804;28;20465;-74
2022/08/22 08:58:52;;;;;;;2.30;1.50;;;28.40;62.10;;;;;;5035372;28;20116;-75
2022/08/22 09:01:26;;;;;;;1.63;1.13;;;28.50;61.10;;;;;;5035338;28;20025;-75
2022/08/22 09:04:32;;;;;;;1.98;1.10;;;28.50;60.70;;;;;;5035429;28;20466;-74
2022/08/22 09:07:18;;;;;;;2.45;1.25;;;28.60;60.50;;;;;;5035451;28;20466;-74
2022/08/22 09:09:54;;;;;;;1.88;1.20;;;28.70;60.20;;;;;;5026639;28;20026;-75
2022/08/22 09:12:27;;;;;;;3.10;1.30;;;28.80;60.40;;;;;;5015188;28;20061;-74
2022/08/22 09:15:08;;;;;;;2.05;1.40;;;28.90;60.70;;;;;;5032732;28;20385;-74
2022/08/22 09:18:00;;;;;;;4.65;1.83;;;29.00;60.40;;;;;;5036798;28;20621;-75
2022/08/22 09:20:45;;;;;;;1.77;1.00;;;29.00;59.20;;;;;;5034282;28;20022;-74
2022/08/22 09:23:48;;;;;;;3.13;0.90;;;29.10;59.60;;;;;;5034238;28;20025;-74
2022/08/22 09:26:29;;;;;;;2.47;1.08;;;29.20;59.40;;;;;;5034831;28;20025;-74
2022/08/22 09:29:23;;;;;;;1.50;1.00;;;29.40;59.70;;;;;;5032130;28;20112;-74
2022/08/22 09:32:19;;;;;;;3.85;0.80;;;29.50;59.50;;;;;;5040652;28;20033;-75
2022/08/22 09:35:00;;;;;;;2.40;1.10;;;29.60;57.30;;;;;;5054934;28;20025;-82
2022/08/22 09:37:32;;;;;;;2.67;0.80;;;29.50;57.70;;;;;;5027673;28;20075;-83
2022/08/22 09:40:27;;;;;;;3.65;1.00;;;29.50;57.70;;;;;;5033254;28;20053;-83
2022/08/22 09:43:11;;;;;;;3.15;0.90;;;29.60;58.40;;;;;;5025696;28;20167;-83
2022/08/22 09:45:44;;;;;;;1.80;0.80;;;29.70;57.90;;;;;;5032606;28;20466;-75
2022/08/22 09:48:28;;;;;;;1.95;0.90;;;29.80;57.50;;;;;;5033684;28;20124;-83
2022/08/22 09:51:10;;;;;;;1.38;0.65;;;30.00;57.00;;;;;;5033462;28;20038;-83
2022/08/22 09:54:09;;;;;;;2.35;1.02;;;30.10;56.80;;;;;;5031078;28;20061;-82
2022/08/22 09:56:44;;;;;;;1.00;0.88;;;30.20;56.60;;;;;;5032844;28;20060;-83
2022/08/22 09:59:34;;;;;;;2.95;1.10;;;30.30;57.10;;;;;;5028026;28;20076;-82
2022/08/22 10:02:18;;;;;;;;;;;30.50;57.90;;;;;;5032172;28;20029;-83
2022/08/22 10:04:46;;;;;;;2.22;0.85;;;30.70;57.80;;;;;;5030785;28;19963;-83
2022/08/22 10:07:30;;;;;;;2.83;1.17;;;30.80;58.30;;;;;;5033139;28;20109;-83
2022/08/22 10:10:24;;;;;;;5.85;1.17;;;31.00;59.10;;;;;;5032246;28;20030;-83
2022/08/22 10:13:26;;;;;;;4.80;2.08;;;31.10;58.70;;;;;;5031521;28;20025;-83
2022/08/22 10:16:16;;;;;;;2.42;1.60;;;31.20;59.90;;;;;;5033043;28;20033;-82
2022/08/22 10:19:21;;;;;;;2.17;1.20;;;31.20;59.50;;;;;;5032668;28;20025;-82
2022/08/22 10:22:06;;;;;;;2.88;1.20;;;31.30;59.20;;;;;;4991833;28;20527;-82
2022/08/22 10:24:44;;;;;;;2.08;1.10;;;31.50;59.40;;;;;;5028325;28;20031;-83
2022/08/22 10:27:38;;;;;;;1.45;1.10;;;31.70;58.40;;;;;;5038912;28;20040;-82
2022/08/22 10:30:16;;;;;;;2.13;1.05;;;31.50;56.70;;;;;;5044376;28;20021;-83
2022/08/22 10:33:02;;;;;;;3.47;1.30;;;31.40;58.50;;;;;;5045734;28;20419;-82
2022/08/22 10:35:36;;;;;;;2.50;1.40;;;31.50;59.50;;;;;;5045428;28;20488;-83
2022/08/22 10:38:18;;;;;;;3.90;0.90;;;31.70;59.70;;;;;;5036060;28;20562;-83
2022/08/22 10:41:05;;;;;;;2.22;1.10;;;32.00;59.70;;;;;;5053866;28;20021;-82
2022/08/22 10:43:41;;;;;;;2.05;1.10;;;32.10;59.10;;;;;;5053800;28;20025;-82
2022/08/22 10:46:15;;;;;;;1.88;1.10;;;32.30;59.70;;;;;;5054302;28;20450;-83
2022/08/22 10:48:57;;;;;;;1.92;0.90;;;32.30;58.80;;;;;;5053485;28;20469;-83
2022/08/22 10:51:44;;;;;;;1.83;0.90;;;32.40;59.20;;;;;;5042069;28;20056;-83
2022/08/22 10:54:40;;;;;;;1.20;1.10;;;32.60;59.40;;;;;;5051214;28;20032;-83
2022/08/22 10:57:09;;;;;;;1.77;0.95;;;32.80;59.20;;;;;;5050728;28;20118;-82
2022/08/22 10:59:37;;;;;;;2.38;0.90;;;33.00;58.70;;;;;;5033328;28;20413;-82
2022/08/22 11:02:17;;;;;;;1.45;0.68;;;33.20;58.10;;;;;;5033055;28;20022;-82
2022/08/22 11:05:01;;;;;;;3.08;0.98;;;33.40;57.50;;;;;;5152686;22;20045;-84
2022/08/22 11:07:54;;;;;;;3.17;0.70;;;33.50;57.20;;;;;;5039722;28;20090;-84
2022/08/22 11:10:44;;;;;;;0.90;0.70;;;33.70;53.50;;;;;;5052427;28;20028;-84
2022/08/22 11:13:40;;;;;;;0.60;0.60;;;33.80;50.50;;;;;;5052722;28;20468;-84
2022/08/22 11:16:16;;;;;;;2.13;1.00;;;33.80;52.70;;;;;;5052503;28;20362;-84
2022/08/22 11:19:14;;;;;;;1.88;1.33;;;33.90;50.80;;;;;;5052434;28;20068;-84
2022/08/22 11:22:13;;;;;;;1.92;1.00;;;33.70;52.80;;;;;;5013141;28;20041;-84
2022/08/22 11:24:56;;;;;;;1.63;0.70;;;33.50;54.60;;;;;;5012649;28;20025;-84
2022/08/22 11:27:49;;;;;;;0.63;0.63;;;33.70;55.30;;;;;;5028877;28;20033;-85
2022/08/22 11:30:53;;;;;;;0.75;0.60;;;33.90;51.30;;;;;;5013357;28;20037;-86
2022/08/22 11:33:44;;;;;;;1.38;0.50;;;34.20;49.50;;;;;;5027827;28;20459;-87
2022/08/22 11:36:16;;;;;;;1.35;0.50;;;34.40;46.00;;;;;;5030575;28;20026;-85
2022/08/22 11:39:21;;;;;;;0.90;0.52;;;34.40;46.40;;;;;;5029586;28;20053;-86
2022/08/22 11:42:11;;;;;;;2.40;0.70;;;34.40;47.00;;;;;;5029664;28;20028;-88
2022/08/22 11:44:46;;;;;;;2.20;0.80;;;34.70;48.10;;;;;;5034741;28;20021;-85
2022/08/22 11:47:16;;;;;;;1.67;1.17;;;35.10;49.30;;;;;;5031480;28;20026;-85
2022/08/22 11:50:07;;;;;;;1.13;0.82;;;35.50;49.70;;;;;;5031411;28;20057;-86
2022/08/22 11:52:45;;;;;;;1.90;0.90;;;35.70;50.00;;;;;;5032054;28;20033;-85
2022/08/22 11:55:41;;;;;;;2.45;0.90;;;36.00;49.20;;;;;;5030278;28;20484;-85
2022/08/22 11:58:37;;;;;;;2.65;1.08;;;35.90;50.10;;;;;;5031009;28;20030;-85
2022/08/22 12:01:16;;;;;;;1.35;0.80;;;35.80;49.30;;;;;;5031428;28;20014;-85
2022/08/22 12:04:03;;;;;;;2.58;0.90;;;35.70;48.40;;;;;;5029769;28;20035;-84
2022/08/22 12:06:44;;;;;;;1.90;0.90;;;36.00;48.80;;;;;;5029823;28;20030;-84
2022/08/22 12:09:26;;;;;;;1.83;0.85;;;35.80;48.60;;;;;;5029916;28;20046;-85
2022/08/22 12:12:10;;;;;;;3.30;0.70;;;35.40;47.00;;;;;;5031338;28;20022;-84
2022/08/22 12:15:00;;;;;;;1.80;0.80;;;35.00;48.40;;;;;;5027870;28;20033;-85
2022/08/22 12:17:34;;;;;;;1.55;1.05;;;34.70;48.60;;;;;;5030887;28;20033;-84
2022/08/22 12:20:12;;;;;;;1.45;0.93;;;34.80;49.10;;;;;;5030123;28;20044;-85
2022/08/22 12:23:03;;;;;;;1.77;0.80;;;35.20;48.90;;;;;;5033422;28;20107;-85
2022/08/22 12:26:02;;;;;;;1.42;0.85;;;35.50;48.40;;;;;;5033716;28;20060;-85
2022/08/22 12:29:06;;;;;;;1.30;0.80;;;35.60;47.30;;;;;;5033437;28;20480;-85
2022/08/22 12:32:03;;;;;;;3.70;0.82;;;35.30;47.70;;;;;;5034530;28;20036;-86
2022/08/22 12:35:00;;;;;;;1.02;0.70;;;35.00;47.60;;;;;;5036000;28;20087;-85
2022/08/22 12:37:25;;;;;;;2.00;1.23;;;35.00;45.60;;;;;;5035828;28;20055;-85
2022/08/22 12:40:12;;;;;;;1.55;0.80;;;34.90;47.00;;;;;;5035142;28;20470;-85
2022/08/22 12:42:55;;;;;;;0.70;0.60;;;34.80;47.00;;;;;;5035788;28;20044;-85
2022/08/22 12:45:38;;;;;;;6.63;0.90;;;34.80;44.90;;;;;;5034515;28;20470;-85
2022/08/22 12:48:28;;;;;;;1.17;0.80;;;34.90;46.10;;;;;;5034602;28;20319;-85
2022/08/22 12:51:02;;;;;;;0.95;0.60;;;35.30;45.20;;;;;;5036010;28;20029;-85
2022/08/22 12:53:52;;;;;;;2.05;0.50;;;35.60;43.90;;;;;;5034353;28;20034;-85
2022/08/22 12:56:26;;;;;;;3.67;0.70;;;35.90;43.50;;;;;;5034263;28;20112;-86
2022/08/22 12:59:23;;;;;;;0.57;0.50;;;36.20;43.20;;;;;;5034278;28;20065;-86
2022/08/22 13:01:55;;;;;;;0.60;0.40;;;36.40;43.10;;;;;;5036140;28;20022;-85
2022/08/22 13:04:33;;;;;;;3.15;0.65;;;36.60;42.60;;;;;;5034595;28;20394;-84
2022/08/22 13:07:29;;;;;;;0.73;0.52;;;36.70;41.30;;;;;;5035475;28;20112;-86
2022/08/22 13:09:57;;;;;;;1.35;0.90;;;36.80;41.60;;;;;;5037016;28;20049;-86
2022/08/22 13:12:25;;;;;;;0.90;0.80;;;36.80;42.20;;;;;;5035834;28;20052;-85
2022/08/22 13:15:15;;;;;;;1.08;0.60;;;36.80;42.00;;;;;;5038204;28;20026;-86
2022/08/22 13:17:45;;;;;;;0.57;0.50;;;36.70;41.10;;;;;;5038094;28;20084;-85
2022/08/22 13:20:20;;;;;;;0.32;0.32;;;36.60;41.10;;;;;;5039382;28;20448;-85
2022/08/22 13:22:46;;;;;;;0.57;0.47;;;36.40;40.70;;;;;;5018191;28;20022;-86
2022/08/22 13:25:53;;;;;;;0.88;0.60;;;36.30;41.40;;;;;;5017023;28;20045;-84
2022/08/22 13:28:21;;;;;;;1.13;0.70;;;36.10;41.20;;;;;;5016279;28;20041;-84
2022/08/22 13:30:52;;;;;;;2.20;0.55;;;36.00;41.20;;;;;;5014794;28;20029;-84
2022/08/22 13:33:27;;;;;;;2.25;0.70;;;35.70;41.30;;;;;;5013604;28;20037;-84
2022/08/22 13:36:02;;;;;;;2.80;0.70;;;35.60;42.00;;;;;;5016951;28;20080;-84
2022/08/22 13:38:50;;;;;;;2.13;0.75;;;35.40;42.70;;;;;;5015133;28;20061;-85
2022/08/22 13:41:29;;;;;;;1.80;0.77;;;35.20;42.90;;;;;;5030676;28;20377;-84
2022/08/22 13:44:03;;;;;;;3.47;0.73;;;35.10;43.00;;;;;;5013961;28;20029;-84
2022/08/22 13:46:31;;;;;;;0.93;0.60;;;35.00;43.50;;;;;;5014820;28;20034;-85
2022/08/22 13:49:00;;;;;;;0.57;0.52;;;35.00;43.10;;;;;;5013561;28;20034;-86
2022/08/22 13:51:46;;;;;;;2.20;0.67;;;34.90;42.80;;;;;;5017228;28;20073;-84
2022/08/22 13:54:14;;;;;;;1.75;0.50;;;34.90;41.70;;;;;;5029550;28;20288;-84
2022/08/22 13:57:16;;;;;;;1.58;0.77;;;34.90;41.40;;;;;;5033768;28;20026;-85
2022/08/22 14:00:10;;;;;;;2.55;0.57;;;34.80;40.60;;;;;;5049563;28;20036;-82
2022/08/22 14:02:42;;;;;;;1.38;0.60;;;34.70;41.20;;;;;;5049095;28;20045;-82